METAR AND TAF INFORMATION
METAR FOR SVJC
ADDS - METARS form results

(0906 UTC 22 October 2019)
Data provider http://aviationweather.gov/metar/data/
 
Forecast for: SVJC (PARAGUANA/JOSEFA, VE)
Text: TAF SVJC 220400Z 2206/2306 08004KT 9999 BKN013 TX32/19Z TN23/09Z
Forecast period: 0600 UTC 22 October 2019 to 0600 UTC 23 October 2019
Forecast type: FROM: standard forecast or significant change
Winds: from the E (80 degrees) at 5 MPH (4 knots; 2.1 m/s)
Visibility: 6 or more miles 10+ km)
Ceiling: 1300 feet AGL
Clouds: broken clouds at 1300 feet AGL
Weather: no significant weather forecast for this period
Text: TEMPO 2206/2210 VRB03KT 8000 DZ BKN010
Forecast period: 0600 to 1000 UTC 22 October 2019
Forecast type: TEMPORARY: The following changes expected for less than half the time period
Winds: variable direction winds at 3 MPH (3 knots; 1.5 m/s)
Visibility: 5 miles (8 km)
Ceiling: 1000 feet AGL
Clouds: broken clouds at 1000 feet AGL
Weather: DZ  (moderate drizzle)

 AIRPORT MAP

 RUNWAY INFORMATION
Runway 09 Runway length 9186 ft Runway width 148 ft
Runway elevation 75 ft Runway displaced threshold 0 ft Runway heading 85
Runway 27 Runway length 9186 ft Runway width 148 ft
Runway elevation 75 ft Runway displaced threshold 0 ft Runway heading 265

 AIRPORT FREQUENCIES
Type TWR Name TWR Frequency 118.45 MHZ

 AIRPORT NEAR NAVIGATION AIDS
Type VOR-DME Name Paraguana Frequency 113600 KHZ
Type NDB Name Paraguana Frequency 385 KHZ